ASR weather

Kayseri Erkilet Airport
Kayseri, Kayseri Province, Turkey

Public forecast

Using degrees Celsius for public forecast. Weather courtesy of forecast.io.

METAR (pilot weather report)

Retrieved 2019/06/17 22:20 UTC (33 minutes ago):

LTAU 172220Z VRB01KT 9999 BKN040 19/13 Q1013 NOSIG

TAF (pilot weather forecast)

Retrieved 2019/06/17 18:03 UTC (5 hours ago):

TAF LTAU 171640Z 1718/1818 VRB02KT 9999 SCT040 TEMPO 1718/1721 25015G25KT -TSRA FEW030CB BKN035 PROB40 TEMPO 1802/1806 -TSRA FEW030CB BKN035 TEMPO 1809/1813 16015G25KT -TSRA FEW030CB BKN035 TEMPO 1813/1817 25015G25KT -TSRA FEW030CB BKN035